sensor_id;sensor_type;location;lat;lon;timestamp;P1;durP1;ratioP1;P2;durP2;ratioP2
1977;SDS011;989;53.016;8.346;2024-02-23T00:01:49;1.40;;;0.82;;
1977;SDS011;989;53.016;8.346;2024-02-23T00:04:16;0.50;;;0.50;;
1977;SDS011;989;53.016;8.346;2024-02-23T00:06:44;1.80;;;0.70;;
1977;SDS011;989;53.016;8.346;2024-02-23T00:09:09;0.83;;;0.60;;
1977;SDS011;989;53.016;8.346;2024-02-23T00:11:35;0.50;;;0.50;;
1977;SDS011;989;53.016;8.346;2024-02-23T00:14:04;4.90;;;0.68;;
1977;SDS011;989;53.016;8.346;2024-02-23T00:16:30;0.70;;;0.57;;
1977;SDS011;989;53.016;8.346;2024-02-23T00:18:55;0.60;;;0.50;;
1977;SDS011;989;53.016;8.346;2024-02-23T00:21:21;1.73;;;0.93;;
1977;SDS011;989;53.016;8.346;2024-02-23T00:23:46;0.60;;;0.40;;
1977;SDS011;989;53.016;8.346;2024-02-23T00:26:11;0.60;;;0.50;;
1977;SDS011;989;53.016;8.346;2024-02-23T00:28:37;0.70;;;0.70;;
1977;SDS011;989;53.016;8.346;2024-02-23T00:31:02;0.60;;;0.50;;
1977;SDS011;989;53.016;8.346;2024-02-23T00:33:27;0.60;;;0.40;;
1977;SDS011;989;53.016;8.346;2024-02-23T00:35:53;0.70;;;0.70;;
1977;SDS011;989;53.016;8.346;2024-02-23T00:38:18;0.60;;;0.50;;
1977;SDS011;989;53.016;8.346;2024-02-23T00:40:44;2.10;;;0.60;;
1977;SDS011;989;53.016;8.346;2024-02-23T00:43:10;0.60;;;0.40;;
1977;SDS011;989;53.016;8.346;2024-02-23T00:45:35;0.60;;;0.50;;
1977;SDS011;989;53.016;8.346;2024-02-23T00:48:02;0.60;;;0.40;;
1977;SDS011;989;53.016;8.346;2024-02-23T00:50:28;0.60;;;0.40;;
1977;SDS011;989;53.016;8.346;2024-02-23T00:52:53;0.60;;;0.40;;
1977;SDS011;989;53.016;8.346;2024-02-23T00:55:19;0.60;;;0.50;;
1977;SDS011;989;53.016;8.346;2024-02-23T00:57:44;0.50;;;0.40;;
1977;SDS011;989;53.016;8.346;2024-02-23T01:00:10;0.50;;;0.40;;
1977;SDS011;989;53.016;8.346;2024-02-23T01:02:36;0.50;;;0.50;;
1977;SDS011;989;53.016;8.346;2024-02-23T01:05:02;0.50;;;0.50;;
1977;SDS011;989;53.016;8.346;2024-02-23T01:07:28;0.50;;;0.40;;
1977;SDS011;989;53.016;8.346;2024-02-23T01:09:53;0.60;;;0.50;;
1977;SDS011;989;53.016;8.346;2024-02-23T01:12:18;0.50;;;0.50;;
1977;SDS011;989;53.016;8.346;2024-02-23T01:14:44;0.50;;;0.50;;
1977;SDS011;989;53.016;8.346;2024-02-23T01:17:09;0.50;;;0.43;;
1977;SDS011;989;53.016;8.346;2024-02-23T01:19:35;0.60;;;0.60;;
1977;SDS011;989;53.016;8.346;2024-02-23T01:22:00;0.50;;;0.50;;
1977;SDS011;989;53.016;8.346;2024-02-23T01:24:28;2.73;;;0.93;;
1977;SDS011;989;53.016;8.346;2024-02-23T01:26:55;0.50;;;0.50;;
1977;SDS011;989;53.016;8.346;2024-02-23T01:29:21;0.50;;;0.40;;
1977;SDS011;989;53.016;8.346;2024-02-23T01:31:50;0.80;;;0.60;;
1977;SDS011;989;53.016;8.346;2024-02-23T01:34:16;0.50;;;0.50;;
1977;SDS011;989;53.016;8.346;2024-02-23T01:36:42;0.50;;;0.50;;
1977;SDS011;989;53.016;8.346;2024-02-23T01:39:08;0.50;;;0.50;;
1977;SDS011;989;53.016;8.346;2024-02-23T01:41:33;0.50;;;0.50;;
1977;SDS011;989;53.016;8.346;2024-02-23T01:43:59;0.53;;;0.50;;
1977;SDS011;989;53.016;8.346;2024-02-23T01:46:25;0.50;;;0.50;;
1977;SDS011;989;53.016;8.346;2024-02-23T01:48:51;0.50;;;0.50;;
1977;SDS011;989;53.016;8.346;2024-02-23T01:51:16;0.53;;;0.53;;
1977;SDS011;989;53.016;8.346;2024-02-23T01:53:42;0.40;;;0.40;;
1977;SDS011;989;53.016;8.346;2024-02-23T01:56:07;0.87;;;0.50;;
1977;SDS011;989;53.016;8.346;2024-02-23T01:58:34;0.47;;;0.47;;
1977;SDS011;989;53.016;8.346;2024-02-23T02:01:00;0.50;;;0.50;;
1977;SDS011;989;53.016;8.346;2024-02-23T02:03:25;0.50;;;0.50;;
1977;SDS011;989;53.016;8.346;2024-02-23T02:05:51;0.50;;;0.50;;
1977;SDS011;989;53.016;8.346;2024-02-23T02:08:18;0.50;;;0.50;;
1977;SDS011;989;53.016;8.346;2024-02-23T02:10:44;0.50;;;0.50;;
1977;SDS011;989;53.016;8.346;2024-02-23T02:13:10;0.50;;;0.50;;
1977;SDS011;989;53.016;8.346;2024-02-23T02:15:36;0.50;;;0.50;;
1977;SDS011;989;53.016;8.346;2024-02-23T02:18:01;0.60;;;0.60;;
1977;SDS011;989;53.016;8.346;2024-02-23T02:20:27;0.50;;;0.50;;
1977;SDS011;989;53.016;8.346;2024-02-23T02:22:53;0.73;;;0.60;;
1977;SDS011;989;53.016;8.346;2024-02-23T02:25:18;0.60;;;0.60;;
1977;SDS011;989;53.016;8.346;2024-02-23T02:27:44;0.50;;;0.50;;
1977;SDS011;989;53.016;8.346;2024-02-23T02:30:11;0.47;;;0.47;;
1977;SDS011;989;53.016;8.346;2024-02-23T02:32:37;0.60;;;0.60;;
1977;SDS011;989;53.016;8.346;2024-02-23T02:35:02;0.50;;;0.50;;
1977;SDS011;989;53.016;8.346;2024-02-23T02:37:28;0.90;;;0.90;;
1977;SDS011;989;53.016;8.346;2024-02-23T02:39:54;0.60;;;0.60;;
1977;SDS011;989;53.016;8.346;2024-02-23T02:42:19;0.70;;;0.70;;
1977;SDS011;989;53.016;8.346;2024-02-23T02:44:45;0.50;;;0.50;;
1977;SDS011;989;53.016;8.346;2024-02-23T02:47:10;0.60;;;0.60;;
1977;SDS011;989;53.016;8.346;2024-02-23T02:49:35;0.50;;;0.50;;
1977;SDS011;989;53.016;8.346;2024-02-23T02:52:01;0.50;;;0.50;;
1977;SDS011;989;53.016;8.346;2024-02-23T02:54:27;0.60;;;0.50;;
1977;SDS011;989;53.016;8.346;2024-02-23T02:56:52;3.73;;;1.30;;
1977;SDS011;989;53.016;8.346;2024-02-23T02:59:19;0.63;;;0.52;;
1977;SDS011;989;53.016;8.346;2024-02-23T03:01:45;0.70;;;0.50;;
1977;SDS011;989;53.016;8.346;2024-02-23T03:04:12;1.25;;;0.80;;
1977;SDS011;989;53.016;8.346;2024-02-23T03:06:37;4.00;;;0.80;;
1977;SDS011;989;53.016;8.346;2024-02-23T03:09:02;1.20;;;0.50;;
1977;SDS011;989;53.016;8.346;2024-02-23T03:11:28;1.70;;;1.50;;
1977;SDS011;989;53.016;8.346;2024-02-23T03:13:53;1.63;;;0.83;;
1977;SDS011;989;53.016;8.346;2024-02-23T03:16:19;1.10;;;1.00;;
1977;SDS011;989;53.016;8.346;2024-02-23T03:18:45;3.47;;;1.58;;
1977;SDS011;989;53.016;8.346;2024-02-23T03:21:11;2.33;;;0.90;;
1977;SDS011;989;53.016;8.346;2024-02-23T03:23:38;1.02;;;0.93;;
1977;SDS011;989;53.016;8.346;2024-02-23T03:26:03;0.77;;;0.77;;
1977;SDS011;989;53.016;8.346;2024-02-23T03:28:29;1.17;;;1.07;;
1977;SDS011;989;53.016;8.346;2024-02-23T03:30:54;2.33;;;1.20;;
1977;SDS011;989;53.016;8.346;2024-02-23T03:33:20;1.20;;;1.10;;
1977;SDS011;989;53.016;8.346;2024-02-23T03:35:45;1.20;;;1.10;;
1977;SDS011;989;53.016;8.346;2024-02-23T03:38:10;2.07;;;1.70;;
1977;SDS011;989;53.016;8.346;2024-02-23T03:40:36;1.63;;;1.20;;
1977;SDS011;989;53.016;8.346;2024-02-23T03:43:02;3.03;;;1.47;;
1977;SDS011;989;53.016;8.346;2024-02-23T03:45:27;2.80;;;2.10;;
1977;SDS011;989;53.016;8.346;2024-02-23T03:47:53;1.00;;;1.00;;
1977;SDS011;989;53.016;8.346;2024-02-23T03:50:18;2.20;;;1.63;;
1977;SDS011;989;53.016;8.346;2024-02-23T03:52:44;1.37;;;1.27;;
1977;SDS011;989;53.016;8.346;2024-02-23T03:55:09;0.87;;;0.87;;
1977;SDS011;989;53.016;8.346;2024-02-23T03:57:35;0.90;;;0.90;;
1977;SDS011;989;53.016;8.346;2024-02-23T04:00:00;0.73;;;0.70;;
1977;SDS011;989;53.016;8.346;2024-02-23T04:02:26;2.07;;;1.80;;
1977;SDS011;989;53.016;8.346;2024-02-23T04:04:51;7.67;;;1.90;;
1977;SDS011;989;53.016;8.346;2024-02-23T04:07:16;6.50;;;1.97;;
1977;SDS011;989;53.016;8.346;2024-02-23T04:09:42;7.87;;;2.87;;
1977;SDS011;989;53.016;8.346;2024-02-23T04:12:07;1.27;;;1.17;;
1977;SDS011;989;53.016;8.346;2024-02-23T04:14:33;0.70;;;0.60;;
1977;SDS011;989;53.016;8.346;2024-02-23T04:17:01;3.65;;;1.25;;
1977;SDS011;989;53.016;8.346;2024-02-23T04:19:30;0.98;;;0.80;;
1977;SDS011;989;53.016;8.346;2024-02-23T04:21:55;1.00;;;0.73;;
1977;SDS011;989;53.016;8.346;2024-02-23T04:24:20;0.90;;;0.80;;
1977;SDS011;989;53.016;8.346;2024-02-23T04:26:46;0.80;;;0.70;;
1977;SDS011;989;53.016;8.346;2024-02-23T04:29:11;10.63;;;2.17;;
1977;SDS011;989;53.016;8.346;2024-02-23T04:31:37;0.90;;;0.80;;
1977;SDS011;989;53.016;8.346;2024-02-23T04:34:03;0.80;;;0.73;;
1977;SDS011;989;53.016;8.346;2024-02-23T04:36:28;0.97;;;0.73;;
1977;SDS011;989;53.016;8.346;2024-02-23T04:38:54;0.70;;;0.60;;
1977;SDS011;989;53.016;8.346;2024-02-23T04:41:20;1.00;;;0.70;;
1977;SDS011;989;53.016;8.346;2024-02-23T04:43:46;0.90;;;0.70;;
1977;SDS011;989;53.016;8.346;2024-02-23T04:46:11;1.87;;;1.33;;
1977;SDS011;989;53.016;8.346;2024-02-23T04:48:37;0.80;;;0.53;;
1977;SDS011;989;53.016;8.346;2024-02-23T04:51:03;2.20;;;1.00;;
1977;SDS011;989;53.016;8.346;2024-02-23T04:53:28;0.60;;;0.50;;
1977;SDS011;989;53.016;8.346;2024-02-23T04:55:54;2.10;;;0.97;;
1977;SDS011;989;53.016;8.346;2024-02-23T04:58:19;1.53;;;1.27;;
1977;SDS011;989;53.016;8.346;2024-02-23T05:00:45;1.23;;;1.10;;
1977;SDS011;989;53.016;8.346;2024-02-23T05:03:11;3.67;;;1.33;;
1977;SDS011;989;53.016;8.346;2024-02-23T05:05:36;1.20;;;1.10;;
1977;SDS011;989;53.016;8.346;2024-02-23T05:08:02;4.90;;;1.50;;
1977;SDS011;989;53.016;8.346;2024-02-23T05:10:28;3.67;;;2.20;;
1977;SDS011;989;53.016;8.346;2024-02-23T05:12:54;1.00;;;0.90;;
1977;SDS011;989;53.016;8.346;2024-02-23T05:15:20;1.60;;;1.40;;
1977;SDS011;989;53.016;8.346;2024-02-23T05:17:46;4.10;;;1.50;;
1977;SDS011;989;53.016;8.346;2024-02-23T05:20:11;1.20;;;1.00;;
1977;SDS011;989;53.016;8.346;2024-02-23T05:22:38;1.37;;;1.27;;
1977;SDS011;989;53.016;8.346;2024-02-23T05:25:04;1.33;;;1.23;;
1977;SDS011;989;53.016;8.346;2024-02-23T05:27:30;2.40;;;1.37;;
1977;SDS011;989;53.016;8.346;2024-02-23T05:29:55;2.60;;;1.90;;
1977;SDS011;989;53.016;8.346;2024-02-23T05:32:21;2.30;;;1.30;;
1977;SDS011;989;53.016;8.346;2024-02-23T05:34:46;2.10;;;0.93;;
1977;SDS011;989;53.016;8.346;2024-02-23T05:37:11;1.50;;;1.37;;
1977;SDS011;989;53.016;8.346;2024-02-23T05:39:37;2.17;;;2.03;;
1977;SDS011;989;53.016;8.346;2024-02-23T05:42:03;5.07;;;2.13;;
1977;SDS011;989;53.016;8.346;2024-02-23T05:44:29;2.30;;;1.80;;
1977;SDS011;989;53.016;8.346;2024-02-23T05:46:54;1.50;;;1.40;;
1977;SDS011;989;53.016;8.346;2024-02-23T05:49:20;1.87;;;1.07;;
1977;SDS011;989;53.016;8.346;2024-02-23T05:51:45;4.40;;;1.30;;
1977;SDS011;989;53.016;8.346;2024-02-23T05:54:10;4.13;;;1.23;;
1977;SDS011;989;53.016;8.346;2024-02-23T05:56:36;3.77;;;1.40;;
1977;SDS011;989;53.016;8.346;2024-02-23T05:59:02;2.00;;;1.80;;
1977;SDS011;989;53.016;8.346;2024-02-23T06:01:27;3.13;;;1.30;;
1977;SDS011;989;53.016;8.346;2024-02-23T06:03:53;1.20;;;1.10;;
1977;SDS011;989;53.016;8.346;2024-02-23T06:06:20;1.15;;;0.77;;
1977;SDS011;989;53.016;8.346;2024-02-23T06:08:45;1.30;;;1.20;;
1977;SDS011;989;53.016;8.346;2024-02-23T06:11:11;0.90;;;0.90;;
1977;SDS011;989;53.016;8.346;2024-02-23T06:13:37;4.77;;;1.83;;
1977;SDS011;989;53.016;8.346;2024-02-23T06:16:02;1.37;;;1.20;;
1977;SDS011;989;53.016;8.346;2024-02-23T06:18:28;3.70;;;1.75;;
1977;SDS011;989;53.016;8.346;2024-02-23T06:20:54;2.70;;;1.00;;
1977;SDS011;989;53.016;8.346;2024-02-23T06:23:19;2.50;;;1.60;;
1977;SDS011;989;53.016;8.346;2024-02-23T06:25:47;5.22;;;1.80;;
1977;SDS011;989;53.016;8.346;2024-02-23T06:28:12;2.00;;;1.80;;
1977;SDS011;989;53.016;8.346;2024-02-23T06:30:37;10.27;;;2.57;;
1977;SDS011;989;53.016;8.346;2024-02-23T06:33:03;2.80;;;2.30;;
1977;SDS011;989;53.016;8.346;2024-02-23T06:35:29;16.77;;;2.58;;
1977;SDS011;989;53.016;8.346;2024-02-23T06:37:54;1.63;;;1.33;;
1977;SDS011;989;53.016;8.346;2024-02-23T06:40:20;2.47;;;1.10;;
1977;SDS011;989;53.016;8.346;2024-02-23T06:42:45;3.70;;;1.83;;
1977;SDS011;989;53.016;8.346;2024-02-23T06:45:10;2.23;;;1.63;;
1977;SDS011;989;53.016;8.346;2024-02-23T06:47:36;3.43;;;2.00;;
1977;SDS011;989;53.016;8.346;2024-02-23T06:50:01;2.97;;;2.20;;
1977;SDS011;989;53.016;8.346;2024-02-23T06:52:28;3.20;;;1.27;;
1977;SDS011;989;53.016;8.346;2024-02-23T06:54:54;4.80;;;2.10;;
1977;SDS011;989;53.016;8.346;2024-02-23T06:57:19;2.27;;;1.90;;
1977;SDS011;989;53.016;8.346;2024-02-23T06:59:44;8.07;;;2.03;;
1977;SDS011;989;53.016;8.346;2024-02-23T07:02:10;1.83;;;1.73;;
1977;SDS011;989;53.016;8.346;2024-02-23T07:04:35;4.50;;;1.90;;
1977;SDS011;989;53.016;8.346;2024-02-23T07:07:00;6.93;;;2.27;;
1977;SDS011;989;53.016;8.346;2024-02-23T07:09:32;4.07;;;1.65;;
1977;SDS011;989;53.016;8.346;2024-02-23T07:11:57;2.10;;;1.90;;
1977;SDS011;989;53.016;8.346;2024-02-23T07:14:23;2.60;;;2.00;;
1977;SDS011;989;53.016;8.346;2024-02-23T07:16:48;1.87;;;1.47;;
1977;SDS011;989;53.016;8.346;2024-02-23T07:19:14;3.63;;;1.70;;
1977;SDS011;989;53.016;8.346;2024-02-23T07:21:39;2.77;;;1.60;;
1977;SDS011;989;53.016;8.346;2024-02-23T07:24:05;7.77;;;2.37;;
1977;SDS011;989;53.016;8.346;2024-02-23T07:26:30;1.67;;;1.57;;
1977;SDS011;989;53.016;8.346;2024-02-23T07:28:56;4.07;;;2.27;;
1977;SDS011;989;53.016;8.346;2024-02-23T07:31:21;4.40;;;2.00;;
1977;SDS011;989;53.016;8.346;2024-02-23T07:33:46;6.17;;;2.30;;
1977;SDS011;989;53.016;8.346;2024-02-23T07:36:15;4.07;;;1.90;;
1977;SDS011;989;53.016;8.346;2024-02-23T07:38:41;3.33;;;1.65;;
1977;SDS011;989;53.016;8.346;2024-02-23T07:41:06;5.03;;;2.10;;
1977;SDS011;989;53.016;8.346;2024-02-23T07:43:32;4.40;;;1.70;;
1977;SDS011;989;53.016;8.346;2024-02-23T07:45:57;12.40;;;2.80;;
1977;SDS011;989;53.016;8.346;2024-02-23T07:48:23;8.60;;;2.20;;
1977;SDS011;989;53.016;8.346;2024-02-23T07:50:48;4.27;;;1.67;;
1977;SDS011;989;53.016;8.346;2024-02-23T07:53:13;2.73;;;1.70;;
1977;SDS011;989;53.016;8.346;2024-02-23T07:55:39;5.63;;;2.00;;
1977;SDS011;989;53.016;8.346;2024-02-23T07:58:04;4.23;;;2.00;;
1977;SDS011;989;53.016;8.346;2024-02-23T08:00:29;2.20;;;2.00;;
1977;SDS011;989;53.016;8.346;2024-02-23T08:02:55;2.93;;;1.83;;
1977;SDS011;989;53.016;8.346;2024-02-23T08:05:22;5.13;;;2.05;;
1977;SDS011;989;53.016;8.346;2024-02-23T08:07:48;1.58;;;1.48;;
1977;SDS011;989;53.016;8.346;2024-02-23T08:10:13;8.07;;;3.60;;
1977;SDS011;989;53.016;8.346;2024-02-23T08:12:39;6.43;;;2.17;;
1977;SDS011;989;53.016;8.346;2024-02-23T08:15:05;7.40;;;2.20;;
1977;SDS011;989;53.016;8.346;2024-02-23T08:17:31;2.60;;;1.67;;
1977;SDS011;989;53.016;8.346;2024-02-23T08:19:56;4.20;;;1.73;;
1977;SDS011;989;53.016;8.346;2024-02-23T08:22:22;5.43;;;1.60;;
1977;SDS011;989;53.016;8.346;2024-02-23T08:24:48;7.45;;;2.50;;
1977;SDS011;989;53.016;8.346;2024-02-23T08:27:14;6.23;;;1.87;;
1977;SDS011;989;53.016;8.346;2024-02-23T08:29:39;6.73;;;1.70;;
1977;SDS011;989;53.016;8.346;2024-02-23T08:32:05;8.03;;;2.30;;
1977;SDS011;989;53.016;8.346;2024-02-23T08:34:30;4.32;;;2.60;;
1977;SDS011;989;53.016;8.346;2024-02-23T08:36:57;6.00;;;2.63;;
1977;SDS011;989;53.016;8.346;2024-02-23T08:39:23;17.07;;;3.67;;
1977;SDS011;989;53.016;8.346;2024-02-23T08:41:48;7.00;;;2.10;;
1977;SDS011;989;53.016;8.346;2024-02-23T08:44:13;6.00;;;1.97;;
1977;SDS011;989;53.016;8.346;2024-02-23T08:46:39;4.03;;;1.80;;
1977;SDS011;989;53.016;8.346;2024-02-23T08:49:05;5.87;;;2.00;;
1977;SDS011;989;53.016;8.346;2024-02-23T08:51:30;11.47;;;1.90;;
1977;SDS011;989;53.016;8.346;2024-02-23T08:53:56;2.10;;;1.30;;
1977;SDS011;989;53.016;8.346;2024-02-23T08:56:22;2.53;;;1.70;;
1977;SDS011;989;53.016;8.346;2024-02-23T08:58:47;2.53;;;1.50;;
1977;SDS011;989;53.016;8.346;2024-02-23T09:01:13;9.43;;;1.83;;
1977;SDS011;989;53.016;8.346;2024-02-23T09:03:38;1.70;;;1.40;;
1977;SDS011;989;53.016;8.346;2024-02-23T09:06:03;6.47;;;2.20;;
1977;SDS011;989;53.016;8.346;2024-02-23T09:08:29;3.83;;;1.97;;
1977;SDS011;989;53.016;8.346;2024-02-23T09:10:54;10.47;;;2.10;;
1977;SDS011;989;53.016;8.346;2024-02-23T09:13:20;3.93;;;2.03;;
1977;SDS011;989;53.016;8.346;2024-02-23T09:15:45;2.17;;;1.80;;
1977;SDS011;989;53.016;8.346;2024-02-23T09:18:11;2.27;;;1.73;;
1977;SDS011;989;53.016;8.346;2024-02-23T09:20:36;3.57;;;1.73;;
1977;SDS011;989;53.016;8.346;2024-02-23T09:23:02;10.93;;;2.80;;
1977;SDS011;989;53.016;8.346;2024-02-23T09:25:28;6.03;;;2.30;;
1977;SDS011;989;53.016;8.346;2024-02-23T09:27:56;4.23;;;2.63;;
1977;SDS011;989;53.016;8.346;2024-02-23T09:30:22;4.15;;;2.67;;
1977;SDS011;989;53.016;8.346;2024-02-23T09:32:47;2.47;;;2.13;;
1977;SDS011;989;53.016;8.346;2024-02-23T09:35:12;5.73;;;2.17;;
1977;SDS011;989;53.016;8.346;2024-02-23T09:37:38;4.47;;;1.95;;
1977;SDS011;989;53.016;8.346;2024-02-23T09:40:04;6.53;;;2.20;;
1977;SDS011;989;53.016;8.346;2024-02-23T09:42:30;4.43;;;2.60;;
1977;SDS011;989;53.016;8.346;2024-02-23T09:45:00;2.40;;;1.88;;
1977;SDS011;989;53.016;8.346;2024-02-23T09:47:29;6.35;;;3.38;;
1977;SDS011;989;53.016;8.346;2024-02-23T09:49:54;4.30;;;2.10;;
1977;SDS011;989;53.016;8.346;2024-02-23T09:52:20;13.80;;;3.53;;
1977;SDS011;989;53.016;8.346;2024-02-23T09:54:46;7.07;;;2.40;;
1977;SDS011;989;53.016;8.346;2024-02-23T09:57:12;7.53;;;2.10;;
1977;SDS011;989;53.016;8.346;2024-02-23T09:59:39;2.75;;;1.80;;
1977;SDS011;989;53.016;8.346;2024-02-23T10:02:07;6.60;;;1.87;;
1977;SDS011;989;53.016;8.346;2024-02-23T10:04:34;4.40;;;2.10;;
1977;SDS011;989;53.016;8.346;2024-02-23T10:07:00;2.33;;;1.80;;
1977;SDS011;989;53.016;8.346;2024-02-23T10:09:25;4.03;;;1.80;;
1977;SDS011;989;53.016;8.346;2024-02-23T10:11:54;8.80;;;2.30;;
1977;SDS011;989;53.016;8.346;2024-02-23T10:14:20;3.88;;;1.92;;
1977;SDS011;989;53.016;8.346;2024-02-23T10:16:46;6.17;;;2.50;;
1977;SDS011;989;53.016;8.346;2024-02-23T10:19:11;3.87;;;2.53;;
1977;SDS011;989;53.016;8.346;2024-02-23T10:21:36;5.53;;;3.20;;
1977;SDS011;989;53.016;8.346;2024-02-23T10:24:02;2.30;;;2.10;;
1977;SDS011;989;53.016;8.346;2024-02-23T10:26:27;9.53;;;2.50;;
1977;SDS011;989;53.016;8.346;2024-02-23T10:28:53;7.67;;;2.50;;
1977;SDS011;989;53.016;8.346;2024-02-23T10:31:20;6.05;;;2.38;;
1977;SDS011;989;53.016;8.346;2024-02-23T10:33:48;2.63;;;1.90;;
1977;SDS011;989;53.016;8.346;2024-02-23T10:36:17;3.85;;;2.22;;
1977;SDS011;989;53.016;8.346;2024-02-23T10:38:43;4.03;;;2.67;;
1977;SDS011;989;53.016;8.346;2024-02-23T10:41:10;4.97;;;2.75;;
1977;SDS011;989;53.016;8.346;2024-02-23T10:43:44;4.90;;;2.75;;
1977;SDS011;989;53.016;8.346;2024-02-23T10:46:14;3.87;;;2.20;;
1977;SDS011;989;53.016;8.346;2024-02-23T10:48:40;7.20;;;2.20;;
1977;SDS011;989;53.016;8.346;2024-02-23T10:51:07;6.77;;;2.97;;
1977;SDS011;989;53.016;8.346;2024-02-23T10:53:33;3.93;;;2.50;;
1977;SDS011;989;53.016;8.346;2024-02-23T10:56:00;8.53;;;2.47;;
1977;SDS011;989;53.016;8.346;2024-02-23T10:58:25;6.13;;;2.40;;
1977;SDS011;989;53.016;8.346;2024-02-23T11:00:51;3.10;;;2.40;;
1977;SDS011;989;53.016;8.346;2024-02-23T11:03:16;5.67;;;2.90;;
1977;SDS011;989;53.016;8.346;2024-02-23T11:05:43;9.50;;;3.07;;
1977;SDS011;989;53.016;8.346;2024-02-23T11:08:08;3.70;;;2.40;;
1977;SDS011;989;53.016;8.346;2024-02-23T11:10:43;2.80;;;2.60;;
1977;SDS011;989;53.016;8.346;2024-02-23T11:13:15;9.33;;;2.60;;
1977;SDS011;989;53.016;8.346;2024-02-23T11:15:41;7.50;;;2.83;;
1977;SDS011;989;53.016;8.346;2024-02-23T11:18:23;3.63;;;2.90;;
1977;SDS011;989;53.016;8.346;2024-02-23T11:20:55;5.20;;;2.90;;
1977;SDS011;989;53.016;8.346;2024-02-23T11:23:22;8.67;;;2.33;;
1977;SDS011;989;53.016;8.346;2024-02-23T11:28:28;4.40;;;2.90;;
1977;SDS011;989;53.016;8.346;2024-02-23T11:30:54;3.20;;;2.33;;
1977;SDS011;989;53.016;8.346;2024-02-23T11:33:29;8.70;;;2.20;;
1977;SDS011;989;53.016;8.346;2024-02-23T11:36:21;2.57;;;2.33;;
1977;SDS011;989;53.016;8.346;2024-02-23T11:38:46;5.77;;;2.10;;
1977;SDS011;989;53.016;8.346;2024-02-23T11:41:12;2.57;;;2.00;;
1977;SDS011;989;53.016;8.346;2024-02-23T11:43:37;5.67;;;2.40;;
1977;SDS011;989;53.016;8.346;2024-02-23T11:46:04;3.17;;;2.70;;
1977;SDS011;989;53.016;8.346;2024-02-23T11:48:30;5.23;;;3.00;;
1977;SDS011;989;53.016;8.346;2024-02-23T11:50:55;5.10;;;2.00;;
1977;SDS011;989;53.016;8.346;2024-02-23T11:53:21;7.70;;;3.30;;
1977;SDS011;989;53.016;8.346;2024-02-23T11:55:47;4.13;;;3.10;;
1977;SDS011;989;53.016;8.346;2024-02-23T11:58:13;6.00;;;5.20;;
1977;SDS011;989;53.016;8.346;2024-02-23T12:00:39;4.20;;;2.67;;
1977;SDS011;989;53.016;8.346;2024-02-23T12:03:04;4.20;;;2.57;;
1977;SDS011;989;53.016;8.346;2024-02-23T12:05:30;6.90;;;2.90;;
1977;SDS011;989;53.016;8.346;2024-02-23T12:07:55;4.47;;;2.87;;
1977;SDS011;989;53.016;8.346;2024-02-23T12:10:22;5.47;;;3.50;;
1977;SDS011;989;53.016;8.346;2024-02-23T12:12:47;3.70;;;2.60;;
1977;SDS011;989;53.016;8.346;2024-02-23T12:15:14;6.50;;;2.40;;
1977;SDS011;989;53.016;8.346;2024-02-23T12:17:46;4.03;;;2.30;;
1977;SDS011;989;53.016;8.346;2024-02-23T12:20:15;4.87;;;2.80;;
1977;SDS011;989;53.016;8.346;2024-02-23T12:22:41;4.60;;;2.87;;
1977;SDS011;989;53.016;8.346;2024-02-23T12:25:06;8.63;;;2.50;;
1977;SDS011;989;53.016;8.346;2024-02-23T12:27:32;7.67;;;2.67;;
1977;SDS011;989;53.016;8.346;2024-02-23T12:29:57;2.93;;;2.40;;
1977;SDS011;989;53.016;8.346;2024-02-23T12:32:24;4.63;;;2.60;;
1977;SDS011;989;53.016;8.346;2024-02-23T12:34:50;4.53;;;2.50;;
1977;SDS011;989;53.016;8.346;2024-02-23T12:37:15;4.93;;;2.70;;
1977;SDS011;989;53.016;8.346;2024-02-23T12:39:42;3.37;;;3.07;;
1977;SDS011;989;53.016;8.346;2024-02-23T12:42:08;3.20;;;2.90;;
1977;SDS011;989;53.016;8.346;2024-02-23T12:44:33;3.80;;;2.90;;
1977;SDS011;989;53.016;8.346;2024-02-23T12:46:58;2.83;;;2.53;;
1977;SDS011;989;53.016;8.346;2024-02-23T12:49:24;14.77;;;3.10;;
1977;SDS011;989;53.016;8.346;2024-02-23T12:51:49;5.43;;;3.20;;
1977;SDS011;989;53.016;8.346;2024-02-23T12:54:15;6.37;;;3.30;;
1977;SDS011;989;53.016;8.346;2024-02-23T12:56:40;4.27;;;2.90;;
1977;SDS011;989;53.016;8.346;2024-02-23T12:59:05;4.50;;;2.83;;
1977;SDS011;989;53.016;8.346;2024-02-23T13:01:32;6.53;;;3.07;;
1977;SDS011;989;53.016;8.346;2024-02-23T13:04:01;4.27;;;2.27;;
1977;SDS011;989;53.016;8.346;2024-02-23T13:06:27;3.20;;;2.90;;
1977;SDS011;989;53.016;8.346;2024-02-23T13:08:53;5.20;;;2.80;;
1977;SDS011;989;53.016;8.346;2024-02-23T13:11:19;4.30;;;2.70;;
1977;SDS011;989;53.016;8.346;2024-02-23T13:13:44;11.90;;;2.90;;
1977;SDS011;989;53.016;8.346;2024-02-23T13:16:09;6.60;;;2.67;;
1977;SDS011;989;53.016;8.346;2024-02-23T13:18:35;5.00;;;3.10;;
1977;SDS011;989;53.016;8.346;2024-02-23T13:21:00;4.60;;;2.53;;
1977;SDS011;989;53.016;8.346;2024-02-23T13:23:26;3.27;;;2.10;;
1977;SDS011;989;53.016;8.346;2024-02-23T13:25:51;6.13;;;2.60;;
1977;SDS011;989;53.016;8.346;2024-02-23T13:28:17;4.50;;;2.20;;
1977;SDS011;989;53.016;8.346;2024-02-23T13:30:42;6.40;;;2.80;;
1977;SDS011;989;53.016;8.346;2024-02-23T13:33:08;3.40;;;2.20;;
1977;SDS011;989;53.016;8.346;2024-02-23T13:35:35;3.60;;;2.37;;
1977;SDS011;989;53.016;8.346;2024-02-23T13:38:01;3.93;;;1.90;;
1977;SDS011;989;53.016;8.346;2024-02-23T13:40:28;3.80;;;2.40;;
1977;SDS011;989;53.016;8.346;2024-02-23T13:42:54;2.57;;;2.10;;
1977;SDS011;989;53.016;8.346;2024-02-23T13:45:20;7.83;;;2.20;;
1977;SDS011;989;53.016;8.346;2024-02-23T13:48:00;6.40;;;2.90;;
1977;SDS011;989;53.016;8.346;2024-02-23T13:50:27;2.80;;;2.03;;
1977;SDS011;989;53.016;8.346;2024-02-23T13:52:53;3.60;;;2.23;;
1977;SDS011;989;53.016;8.346;2024-02-23T13:55:19;3.20;;;2.20;;
1977;SDS011;989;53.016;8.346;2024-02-23T13:57:47;2.57;;;2.37;;
1977;SDS011;989;53.016;8.346;2024-02-23T14:00:14;3.70;;;2.72;;
1977;SDS011;989;53.016;8.346;2024-02-23T14:02:40;2.95;;;2.75;;
1977;SDS011;989;53.016;8.346;2024-02-23T14:05:06;7.83;;;3.73;;
1977;SDS011;989;53.016;8.346;2024-02-23T14:07:32;4.40;;;2.43;;
1977;SDS011;989;53.016;8.346;2024-02-23T14:09:57;3.73;;;1.90;;
1977;SDS011;989;53.016;8.346;2024-02-23T14:12:23;6.93;;;2.17;;
1977;SDS011;989;53.016;8.346;2024-02-23T14:14:49;7.10;;;2.10;;
1977;SDS011;989;53.016;8.346;2024-02-23T14:17:14;2.30;;;2.10;;
1977;SDS011;989;53.016;8.346;2024-02-23T14:19:39;2.70;;;1.97;;
1977;SDS011;989;53.016;8.346;2024-02-23T14:22:05;3.83;;;2.40;;
1977;SDS011;989;53.016;8.346;2024-02-23T14:24:30;2.70;;;1.83;;
1977;SDS011;989;53.016;8.346;2024-02-23T14:26:56;3.97;;;1.63;;
1977;SDS011;989;53.016;8.346;2024-02-23T14:29:21;5.00;;;2.20;;
1977;SDS011;989;53.016;8.346;2024-02-23T14:31:46;3.37;;;2.37;;
1977;SDS011;989;53.016;8.346;2024-02-23T14:34:12;5.67;;;1.90;;
1977;SDS011;989;53.016;8.346;2024-02-23T14:36:37;7.73;;;2.07;;
1977;SDS011;989;53.016;8.346;2024-02-23T14:39:03;2.60;;;2.17;;
1977;SDS011;989;53.016;8.346;2024-02-23T14:41:29;3.60;;;2.10;;
1977;SDS011;989;53.016;8.346;2024-02-23T14:43:55;2.67;;;1.60;;
1977;SDS011;989;53.016;8.346;2024-02-23T14:46:20;4.70;;;2.43;;
1977;SDS011;989;53.016;8.346;2024-02-23T14:48:45;3.13;;;1.90;;
1977;SDS011;989;53.016;8.346;2024-02-23T14:51:13;2.73;;;1.90;;
1977;SDS011;989;53.016;8.346;2024-02-23T14:53:39;4.40;;;1.70;;
1977;SDS011;989;53.016;8.346;2024-02-23T14:56:05;16.33;;;2.10;;
1977;SDS011;989;53.016;8.346;2024-02-23T14:58:31;4.10;;;2.40;;
1977;SDS011;989;53.016;8.346;2024-02-23T15:00:56;4.67;;;2.13;;
1977;SDS011;989;53.016;8.346;2024-02-23T15:03:21;3.30;;;2.30;;
1977;SDS011;989;53.016;8.346;2024-02-23T15:05:47;5.10;;;2.17;;
1977;SDS011;989;53.016;8.346;2024-02-23T15:08:12;1.90;;;1.80;;
1977;SDS011;989;53.016;8.346;2024-02-23T15:10:38;2.73;;;2.30;;
1977;SDS011;989;53.016;8.346;2024-02-23T15:13:03;5.43;;;2.30;;
1977;SDS011;989;53.016;8.346;2024-02-23T15:15:29;5.73;;;2.03;;
1977;SDS011;989;53.016;8.346;2024-02-23T15:17:54;7.33;;;2.23;;
1977;SDS011;989;53.016;8.346;2024-02-23T15:20:20;4.17;;;2.27;;
1977;SDS011;989;53.016;8.346;2024-02-23T15:22:45;5.37;;;2.87;;
1977;SDS011;989;53.016;8.346;2024-02-23T15:25:17;2.37;;;2.17;;